Time;durP1;ratioP1;P1;durP2;ratioP2;P2;SDS_P1;SDS_P2;PMS_P1;PMS_P2;Temp;Humidity;BMP_temperature;BMP_pressure;BME280_temperature;BME280_humidity;BME280_pressure;Samples;Min_cycle;Max_cycle;Signal;HPM_P1;HPM_P2
2023/03/14 00:01:38;;;;;;;6.50;2.80;;;13.40;81.70;;;15.92;56.54;98776.56;5094530;28;20189;-57
2023/03/14 00:04:05;;;;;;;3.53;2.83;;;13.50;81.60;;;16.00;56.32;98776.84;5093854;28;20216;-55
2023/03/14 00:06:34;;;;;;;5.67;3.10;;;13.50;81.30;;;16.02;56.31;98772.09;5093871;28;20196;-56
2023/03/14 00:09:01;;;;;;;4.03;2.73;;;13.50;81.00;;;16.02;56.06;98761.47;5093996;28;20196;-56
2023/03/14 00:11:29;;;;;;;6.87;3.20;;;13.50;80.90;;;16.00;55.85;98758.28;5093997;28;20185;-56
2023/03/14 00:13:56;;;;;;;7.77;2.80;;;13.50;80.70;;;16.01;56.11;98746.63;5096308;28;20216;-56
2023/03/14 00:16:23;;;;;;;5.40;3.40;;;13.50;80.70;;;16.03;55.93;98746.34;5126314;27;20195;-56
2023/03/14 00:18:52;;;;;;;6.10;2.80;;;13.50;80.50;;;15.98;55.88;98749.78;5114383;27;20223;-55
2023/03/14 00:21:19;;;;;;;5.20;3.07;;;13.50;80.50;;;15.96;55.94;98754.56;5114157;28;20219;-55
2023/03/14 00:23:46;;;;;;;4.60;2.77;;;13.50;80.30;;;15.96;56.20;98751.91;5113431;27;20245;-57
2023/03/14 00:26:16;;;;;;;5.00;3.10;;;13.50;80.40;;;15.95;55.63;98747.63;5114295;28;20210;-56
2023/03/14 00:28:44;;;;;;;4.80;2.80;;;13.50;80.40;;;15.96;55.71;98745.78;5113811;28;20188;-56
2023/03/14 00:31:15;;;;;;;6.40;3.10;;;13.50;80.20;;;16.00;55.84;98747.66;5113884;28;20184;-56
2023/03/14 00:33:43;;;;;;;6.50;3.10;;;13.50;80.10;;;16.03;55.47;98741.03;5113694;28;20636;-55
2023/03/14 00:36:15;;;;;;;10.90;3.40;;;13.50;79.90;;;16.01;55.21;98749.28;5114417;28;20191;-55
2023/03/14 00:38:44;;;;;;;5.80;3.23;;;13.50;80.10;;;16.01;55.55;98748.47;5114337;28;20249;-56
2023/03/14 00:41:14;;;;;;;8.27;3.30;;;13.50;79.80;;;15.98;55.68;98762.25;5114059;28;20610;-55
2023/03/14 00:43:41;;;;;;;5.70;3.30;;;13.50;80.20;;;15.94;55.90;98761.97;5113689;28;20553;-62
2023/03/14 00:46:08;;;;;;;4.97;3.07;;;13.50;80.30;;;15.92;56.20;98766.75;5114039;28;20188;-56
2023/03/14 00:48:36;;;;;;;5.43;3.33;;;13.50;80.50;;;15.92;56.23;98772.06;5113968;28;20237;-55
2023/03/14 00:51:04;;;;;;;10.60;3.27;;;13.50;80.70;;;15.91;56.52;98775.75;5113829;28;20229;-56
2023/03/14 00:53:36;;;;;;;5.30;2.80;;;13.50;80.90;;;15.90;55.97;98757.44;5113397;28;20212;-53
2023/03/14 00:56:06;;;;;;;5.30;3.10;;;13.50;81.00;;;15.88;56.50;98733.81;5115831;28;20183;-57
2023/03/14 00:58:33;;;;;;;7.80;3.57;;;13.50;81.10;;;15.88;56.72;98739.13;5117263;28;20187;-57
2023/03/14 01:01:06;;;;;;;6.00;3.00;;;13.40;81.30;;;15.84;56.83;98748.66;5115253;28;20216;-54
2023/03/14 01:03:33;;;;;;;6.03;3.17;;;13.40;81.70;;;15.82;57.22;98752.63;5116425;28;20212;-57
2023/03/14 01:06:09;;;;;;;6.33;3.20;;;13.40;81.90;;;15.74;57.59;98730.03;5113907;28;20246;-56
2023/03/14 01:08:37;;;;;;;4.63;3.30;;;13.40;82.50;;;15.69;57.59;98722.03;5113604;28;20536;-56
2023/03/14 01:11:07;;;;;;;6.07;3.67;;;13.40;82.70;;;15.70;57.74;98723.66;5114119;28;20270;-57
2023/03/14 01:13:35;;;;;;;7.60;4.03;;;13.40;82.90;;;15.70;57.95;98710.38;5113245;28;20212;-55
2023/03/14 01:16:05;;;;;;;8.60;4.13;;;13.30;83.00;;;15.70;58.14;98694.47;5127422;28;20197;-55
2023/03/14 01:18:33;;;;;;;8.00;4.30;;;13.30;83.20;;;15.70;58.24;98683.84;5113378;28;20214;-55
2023/03/14 01:21:00;;;;;;;5.63;4.37;;;13.30;84.10;;;15.66;58.38;98688.09;5113681;28;20336;-55
2023/03/14 01:23:27;;;;;;;6.97;4.40;;;13.30;83.50;;;15.70;57.99;98662.63;5113199;27;20224;-57
2023/03/14 01:25:55;;;;;;;7.23;3.80;;;13.30;83.40;;;15.71;58.27;98653.63;5113677;28;20192;-54
2023/03/14 01:28:22;;;;;;;7.60;3.93;;;13.30;83.70;;;15.71;58.59;98658.94;5115566;28;20188;-57
2023/03/14 01:30:49;;;;;;;6.20;4.27;;;13.30;83.70;;;15.69;58.63;98669.00;5117642;28;20187;-56
2023/03/14 01:33:16;;;;;;;6.43;4.33;;;13.30;84.20;;;15.64;58.63;98669.00;5117019;28;20687;-56
2023/03/14 01:35:43;;;;;;;7.13;4.93;;;13.30;84.30;;;15.68;58.92;98661.31;5117785;28;20218;-57
2023/03/14 01:38:10;;;;;;;6.57;4.57;;;13.30;84.60;;;15.68;58.93;98664.75;5117340;28;20270;-55
2023/03/14 01:40:43;;;;;;;7.33;4.20;;;13.20;84.60;;;15.70;58.59;98661.84;5117112;28;20243;-56
2023/03/14 01:43:17;;;;;;;6.33;4.17;;;13.30;84.70;;;15.74;58.75;98645.13;5116920;28;20547;-57
2023/03/14 01:46:26;;;;;;;5.77;4.47;;;13.30;84.80;;;15.74;58.55;98637.19;5117488;28;20186;-55
2023/03/14 01:49:06;;;;;;;7.30;4.57;;;13.30;84.50;;;15.73;58.90;98634.81;5117181;28;20213;-55
2023/03/14 01:51:44;;;;;;;7.53;4.27;;;13.30;84.80;;;15.73;58.46;98635.59;5117417;27;20187;-56
2023/03/14 01:54:18;;;;;;;3.70;3.33;;;13.30;84.60;;;15.80;58.71;98625.56;5116773;28;20552;-57
2023/03/14 01:56:52;;;;;;;5.93;4.23;;;13.30;84.50;;;15.84;58.50;98620.50;5117507;28;20188;-56
2023/03/14 01:59:21;;;;;;;6.83;4.40;;;13.30;84.60;;;15.90;58.46;98620.25;5117414;28;20244;-54
2023/03/14 02:01:51;;;;;;;8.43;4.57;;;13.30;84.50;;;15.90;58.28;98614.94;5118173;28;20570;-55
2023/03/14 02:04:20;;;;;;;6.63;4.40;;;13.40;84.70;;;15.89;58.24;98618.69;5117069;27;20211;-54
2023/03/14 02:06:56;;;;;;;4.60;3.87;;;13.30;84.70;;;15.86;58.26;98629.81;5117658;28;20188;-56
2023/03/14 02:09:23;;;;;;;8.23;4.63;;;13.40;84.80;;;15.83;58.50;98629.53;5117057;27;20635;-54
2023/03/14 02:11:51;;;;;;;8.03;4.13;;;13.30;84.70;;;15.82;58.57;98639.34;5118239;28;20191;-54
2023/03/14 02:14:31;;;;;;;6.67;4.27;;;13.40;84.70;;;15.75;58.78;98636.13;5122155;27;20213;-54
2023/03/14 02:16:59;;;;;;;6.57;3.80;;;13.30;84.80;;;15.83;58.38;98640.91;5130247;27;20207;-55
2023/03/14 02:19:47;;;;;;;6.87;4.17;;;13.30;84.60;;;15.79;58.66;98633.75;5127437;28;20206;-54
2023/03/14 02:22:16;;;;;;;8.23;4.50;;;13.30;84.70;;;15.79;58.69;98639.84;5116360;28;20211;-59
2023/03/14 02:24:54;;;;;;;7.47;4.70;;;13.30;84.60;;;15.77;58.61;98639.31;5115816;27;20219;-56
2023/03/14 02:27:23;;;;;;;8.17;3.93;;;13.40;84.70;;;15.70;58.68;98649.38;5115449;28;20270;-54
2023/03/14 02:29:54;;;;;;;7.63;4.30;;;13.30;84.50;;;15.62;59.07;98663.13;5116292;28;20196;-56
2023/03/14 02:32:24;;;;;;;6.00;3.87;;;13.30;84.60;;;15.69;58.80;98660.25;5116021;28;20188;-55
2023/03/14 02:34:56;;;;;;;5.00;4.17;;;13.40;84.40;;;15.70;58.81;98646.72;5116297;28;20260;-56
2023/03/14 02:37:38;;;;;;;8.70;4.83;;;13.40;84.40;;;15.67;58.69;98649.88;5116279;28;20226;-55
2023/03/14 02:40:07;;;;;;;9.77;4.33;;;13.40;84.10;;;15.71;58.46;98650.97;5115463;28;20279;-54
2023/03/14 02:42:35;;;;;;;6.90;4.03;;;13.40;84.00;;;15.78;58.35;98648.88;5115957;28;20184;-54
2023/03/14 02:45:39;;;;;;;7.17;4.17;;;13.40;83.80;;;15.81;58.22;98643.03;5116366;28;20241;-54
2023/03/14 02:48:15;;;;;;;6.97;4.07;;;13.50;83.70;;;15.88;57.84;98643.59;5113559;28;20207;-58
2023/03/14 02:50:44;;;;;;;7.03;3.47;;;13.50;83.50;;;15.89;57.96;98639.91;5116985;28;20352;-54
2023/03/14 02:53:16;;;;;;;8.87;4.13;;;13.50;83.30;;;15.94;57.48;98631.97;5116481;28;20215;-53
2023/03/14 02:55:46;;;;;;;4.20;3.13;;;13.50;83.20;;;15.93;57.71;98643.63;5116947;28;20188;-57
2023/03/14 02:58:15;;;;;;;5.57;3.60;;;13.60;83.10;;;16.02;57.50;98644.69;5116874;28;20176;-56
2023/03/14 03:00:42;;;;;;;6.30;3.30;;;13.60;83.00;;;15.96;57.36;98629.03;5117141;28;20223;-54
2023/03/14 03:03:09;;;;;;;11.40;3.67;;;13.60;82.80;;;15.99;57.82;98639.94;5117158;28;20769;-56
2023/03/14 03:05:36;;;;;;;7.00;3.57;;;13.60;82.60;;;16.01;57.18;98621.91;5118766;27;20208;-54
2023/03/14 03:08:04;;;;;;;5.37;3.17;;;13.60;82.40;;;16.01;57.21;98637.81;5126029;28;20184;-56
2023/03/14 03:10:32;;;;;;;4.83;3.03;;;13.60;82.30;;;16.10;56.72;98625.63;5123932;28;20188;-54
2023/03/14 03:12:59;;;;;;;6.07;3.23;;;13.70;82.20;;;16.22;56.51;98617.41;5119712;28;20222;-55
2023/03/14 03:15:28;;;;;;;5.07;3.03;;;13.70;81.90;;;16.14;56.46;98615.28;5128859;27;20551;-56
2023/03/14 03:17:55;;;;;;;8.33;3.57;;;13.70;81.60;;;16.16;56.37;98619.25;5095200;28;20177;-56
2023/03/14 03:20:21;;;;;;;6.50;3.00;;;13.80;81.40;;;16.11;56.36;98616.63;5094871;28;20231;-55
2023/03/14 03:22:49;;;;;;;6.87;3.00;;;13.80;81.30;;;16.09;56.31;98610.75;5094837;28;20242;-55
2023/03/14 03:25:17;;;;;;;6.00;2.97;;;13.80;81.00;;;16.19;55.98;98607.31;5110588;28;20211;-57
2023/03/14 03:27:44;;;;;;;8.90;3.47;;;13.80;80.80;;;16.27;55.68;98607.63;5095091;28;20548;-57
2023/03/14 03:30:12;;;;;;;8.87;3.70;;;13.80;80.70;;;16.21;55.91;98605.22;5094800;28;20197;-57
2023/03/14 03:32:40;;;;;;;6.70;3.07;;;13.80;80.30;;;16.32;55.58;98606.00;5094663;28;20193;-56
2023/03/14 03:35:09;;;;;;;6.07;3.47;;;13.90;80.40;;;16.27;55.86;98610.25;5094732;28;20200;-55
2023/03/14 03:37:36;;;;;;;7.20;3.13;;;13.90;80.80;;;16.26;56.50;98598.03;5094913;28;20699;-54
2023/03/14 03:40:05;;;;;;;5.37;2.90;;;13.90;81.60;;;16.16;57.48;98607.88;5101842;28;20709;-55
2023/03/14 03:42:34;;;;;;;8.43;3.90;;;13.90;82.60;;;16.14;56.90;98605.44;5094251;28;20216;-57
2023/03/14 03:45:04;;;;;;;4.27;3.07;;;13.80;82.70;;;16.09;57.59;98594.81;5094551;28;20226;-55
2023/03/14 03:47:31;;;;;;;7.17;3.33;;;13.80;82.80;;;16.00;58.09;98606.22;5094351;28;20200;-55
2023/03/14 03:49:59;;;;;;;7.27;3.00;;;13.70;83.80;;;15.95;58.20;98607.00;5092866;28;20204;-57
2023/03/14 03:52:26;;;;;;;4.40;3.10;;;13.60;83.60;;;15.89;58.28;98597.44;5094188;28;20192;-54
2023/03/14 03:54:53;;;;;;;6.73;3.27;;;13.60;83.60;;;15.85;58.36;98596.38;5094150;28;20269;-55
2023/03/14 03:57:20;;;;;;;6.73;3.67;;;13.60;83.90;;;15.83;58.62;98590.53;5094405;28;20291;-55
2023/03/14 03:59:47;;;;;;;5.43;3.00;;;13.50;84.00;;;15.86;58.46;98595.31;5093877;28;20196;-55
2023/03/14 04:02:14;;;;;;;3.97;3.07;;;13.50;84.00;;;15.89;58.51;98592.16;5093755;28;20680;-54
2023/03/14 04:04:41;;;;;;;5.03;3.20;;;13.50;84.10;;;15.89;58.35;98586.84;5093881;27;20336;-55
2023/03/14 04:07:10;;;;;;;3.77;2.87;;;13.50;84.10;;;15.92;58.08;98586.31;5094083;28;20188;-55
2023/03/14 04:09:37;;;;;;;4.03;2.60;;;13.40;84.00;;;15.88;58.00;98590.53;5105253;28;20207;-57
2023/03/14 04:12:05;;;;;;;5.97;3.27;;;13.40;83.70;;;15.88;57.58;98595.84;5113917;28;20262;-57
2023/03/14 04:14:32;;;;;;;9.00;3.43;;;13.40;83.30;;;15.85;57.63;98596.38;5120741;27;20211;-55
2023/03/14 04:16:59;;;;;;;5.30;2.90;;;13.50;83.20;;;15.91;57.48;98597.97;5121385;27;20257;-56
2023/03/14 04:19:26;;;;;;;6.47;3.17;;;13.40;82.90;;;15.91;57.29;98595.31;5114055;28;20195;-57
2023/03/14 04:21:53;;;;;;;5.93;3.10;;;13.40;82.80;;;15.90;57.22;98593.72;5113763;27;20228;-55
2023/03/14 04:24:21;;;;;;;7.93;3.87;;;13.50;82.80;;;15.96;57.02;98594.53;5113999;28;20721;-58
2023/03/14 04:26:48;;;;;;;5.90;3.00;;;13.50;82.60;;;15.95;57.07;98585.78;5114397;28;20192;-56
2023/03/14 04:29:21;;;;;;;4.43;3.33;;;13.50;82.70;;;15.92;57.28;98582.88;5114036;28;20198;-54
2023/03/14 04:31:48;;;;;;;3.97;2.60;;;13.50;82.50;;;15.96;57.32;98586.59;5114048;28;20513;-55
2023/03/14 04:34:15;;;;;;;5.03;3.20;;;13.50;82.40;;;15.98;56.76;98579.16;5113365;28;20212;-57
2023/03/14 04:36:42;;;;;;;6.47;3.03;;;13.50;82.50;;;15.99;56.92;98581.56;5113472;28;20188;-55
2023/03/14 04:39:14;;;;;;;6.27;2.93;;;13.50;82.50;;;15.95;56.86;98585.00;5112557;28;20228;-57
2023/03/14 04:41:45;;;;;;;6.17;3.53;;;13.50;82.80;;;15.88;57.38;98574.63;5092979;27;20247;-57
2023/03/14 04:44:12;;;;;;;5.10;3.20;;;13.40;83.10;;;15.80;57.72;98575.16;5093211;28;20212;-56
2023/03/14 04:46:39;;;;;;;5.20;3.13;;;13.40;83.40;;;15.62;58.24;98572.94;5092885;28;20184;-56
2023/03/14 04:49:06;;;;;;;4.83;2.93;;;13.30;83.50;;;15.71;58.07;98573.25;5093630;28;20718;-54
2023/03/14 04:51:33;;;;;;;3.87;3.07;;;13.30;83.40;;;15.70;58.03;98577.75;5093017;28;20177;-57
2023/03/14 04:54:00;;;;;;;3.90;2.67;;;13.30;83.50;;;15.79;57.88;98576.19;5092497;27;20229;-56
2023/03/14 04:56:27;;;;;;;6.60;3.23;;;13.30;83.30;;;15.81;57.51;98568.75;5112453;28;20196;-57
2023/03/14 04:58:55;;;;;;;7.30;3.30;;;13.30;83.40;;;15.83;57.68;98568.53;5113716;28;20195;-56
2023/03/14 05:01:23;;;;;;;6.23;3.30;;;13.30;83.30;;;15.80;57.43;98575.16;5114073;28;20218;-57
2023/03/14 05:03:50;;;;;;;6.73;3.07;;;13.30;83.20;;;15.86;57.33;98576.75;5117460;27;20207;-57
2023/03/14 05:06:17;;;;;;;5.73;3.13;;;13.30;83.20;;;15.91;57.00;98578.59;5117623;28;20617;-56
2023/03/14 05:08:44;;;;;;;3.63;2.33;;;13.30;83.20;;;15.95;56.75;98585.78;5117043;28;20192;-56
2023/03/14 05:11:12;;;;;;;6.60;2.83;;;13.30;83.30;;;15.98;57.09;98598.53;5117561;28;20240;-57
2023/03/14 05:13:39;;;;;;;3.97;2.40;;;13.30;83.30;;;15.98;56.58;98595.88;5117333;28;20303;-57
2023/03/14 05:16:11;;;;;;;3.50;2.40;;;13.30;83.30;;;15.96;56.60;98583.94;5131111;27;20199;-57
2023/03/14 05:18:38;;;;;;;8.60;2.40;;;13.20;83.00;;;15.93;55.96;98576.47;5117397;28;20266;-55
2023/03/14 05:21:06;;;;;;;5.10;2.60;;;13.20;82.40;;;15.88;55.69;98585.22;5117084;28;20286;-56
2023/03/14 05:23:32;;;;;;;7.83;2.43;;;13.10;81.50;;;15.87;55.62;98588.97;5116856;28;20207;-57
2023/03/14 05:25:59;;;;;;;6.27;2.43;;;13.10;81.30;;;15.87;55.47;98581.00;5117209;28;20188;-57
2023/03/14 05:28:27;;;;;;;6.03;1.80;;;13.10;81.00;;;15.86;54.92;98587.34;5117068;28;20196;-57
2023/03/14 05:30:53;;;;;;;4.67;1.90;;;13.10;80.70;;;15.85;54.98;98591.09;5117749;27;20287;-56
2023/03/14 05:33:22;;;;;;;5.13;2.13;;;13.10;80.30;;;15.84;54.38;98578.06;5116933;28;20222;-57
2023/03/14 05:35:49;;;;;;;5.73;2.10;;;13.10;79.80;;;15.79;54.26;98570.88;5117005;28;20196;-56
2023/03/14 05:38:16;;;;;;;2.97;1.80;;;13.10;79.40;;;15.77;54.18;98562.41;5116479;28;20192;-56
2023/03/14 05:40:44;;;;;;;4.60;2.00;;;13.10;79.20;;;15.72;53.89;98557.06;5116850;28;20191;-57
2023/03/14 05:43:11;;;;;;;5.67;2.00;;;13.00;78.80;;;15.69;54.15;98559.47;5116816;28;20711;-56
2023/03/14 05:45:38;;;;;;;4.87;1.70;;;13.00;78.60;;;15.66;54.07;98560.78;5117194;28;20218;-57
2023/03/14 05:48:06;;;;;;;5.63;1.90;;;13.00;78.70;;;15.64;54.06;98552.28;5116814;28;20282;-57
2023/03/14 05:50:34;;;;;;;3.63;2.00;;;13.00;78.80;;;15.62;53.81;98557.03;5117079;28;20196;-56
2023/03/14 05:53:01;;;;;;;7.60;2.03;;;13.00;79.00;;;15.56;53.89;98555.44;5116515;28;20211;-59
2023/03/14 05:55:28;;;;;;;5.50;2.47;;;12.90;78.80;;;15.59;54.23;98561.00;5117029;28;20282;-55
2023/03/14 05:57:55;;;;;;;5.53;1.90;;;12.90;79.10;;;15.63;53.86;98563.16;5118387;28;20684;-57
2023/03/14 06:00:22;;;;;;;4.97;1.67;;;12.90;79.10;;;15.67;54.07;98570.31;5116699;28;20555;-55
2023/03/14 06:02:49;;;;;;;5.90;2.10;;;12.90;79.10;;;15.57;54.61;98567.63;5099074;28;20224;-56
2023/03/14 06:05:16;;;;;;;4.10;1.83;;;12.90;79.10;;;15.64;54.41;98568.22;5097080;28;20657;-58
2023/03/14 06:07:44;;;;;;;6.70;2.00;;;13.00;79.30;;;15.71;54.08;98563.47;5098291;28;20564;-57
2023/03/14 06:10:12;;;;;;;3.87;1.57;;;13.00;79.20;;;15.75;54.07;98564.53;5096790;27;20200;-57
2023/03/14 06:12:39;;;;;;;3.83;1.63;;;13.00;79.00;;;15.68;53.53;98558.66;5097617;28;20192;-55
2023/03/14 06:15:07;;;;;;;5.33;1.50;;;13.00;78.30;;;15.74;53.36;98570.88;5117967;27;20275;-55
2023/03/14 06:17:34;;;;;;;3.90;1.30;;;13.00;78.30;;;15.76;53.02;98571.41;5119977;27;20204;-57
2023/03/14 06:20:02;;;;;;;3.63;1.30;;;13.00;78.00;;;15.82;53.15;98562.41;5119609;28;20648;-56
2023/03/14 06:22:29;;;;;;;3.00;1.40;;;13.00;78.10;;;15.90;52.92;98561.88;5116149;28;20219;-58
2023/03/14 06:24:57;;;;;;;2.40;1.20;;;13.00;78.00;;;15.96;52.12;98566.16;5116055;28;20184;-55
2023/03/14 06:27:24;;;;;;;1.87;1.20;;;13.10;77.60;;;16.02;52.44;98569.63;5116215;28;20194;-56
2023/03/14 06:29:51;;;;;;;4.10;1.60;;;13.10;77.40;;;16.03;52.60;98574.66;5115775;27;20207;-53
2023/03/14 06:32:18;;;;;;;2.03;1.10;;;13.10;77.40;;;16.11;52.06;98579.47;5115755;28;20191;-54
2023/03/14 06:34:45;;;;;;;5.07;1.50;;;13.20;78.30;;;16.18;52.39;98577.34;5115566;28;20207;-54
2023/03/14 06:37:12;;;;;;;3.43;1.43;;;13.20;77.30;;;16.24;51.96;98581.59;5116280;28;20274;-57
2023/03/14 06:39:39;;;;;;;3.67;1.50;;;13.20;77.30;;;16.20;51.93;98583.19;5115349;28;20199;-58
2023/03/14 06:42:08;;;;;;;3.20;1.97;;;13.30;77.80;;;16.18;52.11;98580.00;5116387;28;20216;-57
2023/03/14 06:44:35;;;;;;;2.87;1.47;;;13.30;77.00;;;16.19;51.99;98578.91;5116017;28;20203;-55
2023/03/14 06:47:02;;;;;;;4.87;1.43;;;13.30;76.90;;;16.15;52.34;98580.53;5116532;28;20214;-57
2023/03/14 06:49:29;;;;;;;3.97;1.30;;;13.40;76.90;;;16.03;52.33;98566.69;5116262;28;20192;-58
2023/03/14 06:51:56;;;;;;;2.33;1.47;;;13.40;77.00;;;15.91;52.65;98576.75;5115333;28;20195;-55
2023/03/14 06:54:23;;;;;;;4.23;1.57;;;13.30;77.10;;;15.95;52.64;98574.38;5115266;28;20212;-55
2023/03/14 06:56:50;;;;;;;1.83;1.17;;;13.40;77.50;;;15.98;52.78;98579.16;5115525;28;20241;-58
2023/03/14 06:59:18;;;;;;;4.53;1.80;;;13.30;77.30;;;15.99;53.10;98584.22;5115364;28;20732;-55
2023/03/14 07:01:45;;;;;;;3.07;1.77;;;13.30;77.50;;;15.89;53.60;98581.53;5115686;28;20212;-55
2023/03/14 07:04:12;;;;;;;6.33;1.60;;;13.40;78.00;;;15.85;53.72;98585.78;5114645;28;20563;-56
2023/03/14 07:06:43;;;;;;;3.00;1.40;;;13.30;78.00;;;15.87;53.63;98588.97;5115218;28;20632;-56
2023/03/14 07:09:11;;;;;;;3.27;2.10;;;13.30;78.40;;;15.93;53.81;98592.41;5115283;28;20196;-56
2023/03/14 07:11:38;;;;;;;3.90;1.50;;;13.30;78.50;;;16.03;53.53;98593.22;5115643;28;20648;-55
2023/03/14 07:14:05;;;;;;;4.33;2.00;;;13.30;78.70;;;16.11;53.78;98590.06;5116960;27;20704;-55
2023/03/14 07:16:33;;;;;;;6.43;2.10;;;13.30;78.70;;;16.11;53.65;98592.72;5126685;27;20525;-57
2023/03/14 07:19:02;;;;;;;8.67;2.50;;;13.40;78.80;;;16.13;53.48;98587.94;5114940;28;20187;-56
2023/03/14 07:21:29;;;;;;;4.73;2.40;;;13.40;78.80;;;16.13;53.30;98589.81;5114756;28;20630;-54
2023/03/14 07:23:56;;;;;;;6.80;2.50;;;13.40;79.60;;;16.14;53.55;98589.53;5114746;28;20806;-57
2023/03/14 07:26:23;;;;;;;5.73;2.43;;;13.40;78.90;;;16.22;53.67;98602.28;5116271;28;20192;-55
2023/03/14 07:28:50;;;;;;;7.83;2.47;;;13.40;79.00;;;16.24;53.50;98589.53;5115368;27;20195;-58
2023/03/14 07:31:17;;;;;;;4.83;2.50;;;13.40;78.80;;;16.15;53.66;98599.09;5115160;28;20192;-55
2023/03/14 07:33:46;;;;;;;4.50;2.03;;;13.40;78.80;;;16.20;53.79;98599.13;5115222;28;20211;-58
2023/03/14 07:36:13;;;;;;;5.83;2.40;;;13.50;79.00;;;16.34;53.35;98593.28;5114837;28;20195;-58
2023/03/14 07:38:40;;;;;;;5.10;1.90;;;13.50;78.80;;;16.49;53.22;98601.25;5113831;28;20196;-58
2023/03/14 07:41:07;;;;;;;6.90;2.40;;;13.60;78.80;;;16.55;52.87;98606.31;5114646;28;20199;-56
2023/03/14 07:43:34;;;;;;;5.70;2.20;;;13.70;78.30;;;16.77;53.06;98600.75;5114152;28;20216;-58
2023/03/14 07:46:01;;;;;;;4.10;2.27;;;13.90;78.20;;;16.99;52.05;98590.63;5114191;28;20194;-57
2023/03/14 07:48:29;;;;;;;4.83;2.50;;;14.00;77.70;;;17.19;51.56;98595.88;5114459;28;20211;-55
2023/03/14 07:50:57;;;;;;;7.70;2.10;;;14.20;77.10;;;17.37;50.94;98597.97;5114909;28;20191;-57
2023/03/14 07:53:24;;;;;;;6.53;2.27;;;14.40;76.60;;;17.58;50.69;98594.19;5113687;28;20342;-56
2023/03/14 07:55:53;;;;;;;5.33;2.27;;;14.50;76.20;;;17.67;50.01;98601.59;5114511;27;20552;-58
2023/03/14 07:58:21;;;;;;;6.67;2.10;;;14.60;75.20;;;17.71;49.78;98600.00;5113631;28;20192;-55
2023/03/14 08:00:49;;;;;;;4.00;1.80;;;14.70;74.70;;;17.76;49.39;98594.66;5113912;27;20227;-57
2023/03/14 08:03:16;;;;;;;4.70;1.93;;;14.70;74.30;;;17.68;49.31;98603.19;5113707;28;20215;-57
2023/03/14 08:05:46;;;;;;;5.20;2.30;;;14.70;73.70;;;17.67;49.15;98601.59;5095691;28;20203;-57
2023/03/14 08:08:14;;;;;;;5.87;2.37;;;14.70;73.50;;;17.63;49.07;98603.22;5096592;28;20184;-58
2023/03/14 08:10:42;;;;;;;5.40;2.00;;;14.70;73.50;;;17.56;49.41;98606.19;5094114;28;20200;-54
2023/03/14 08:13:10;;;;;;;8.57;2.30;;;14.70;73.70;;;17.47;49.48;98603.22;5092998;28;20212;-58
2023/03/14 08:15:37;;;;;;;4.37;1.97;;;14.60;73.70;;;17.45;49.61;98608.03;5122798;27;20205;-57
2023/03/14 08:18:05;;;;;;;4.77;2.20;;;14.60;73.80;;;17.44;49.57;98603.00;5113951;28;20184;-55
2023/03/14 08:20:32;;;;;;;4.73;2.10;;;14.60;74.00;;;17.41;49.71;98596.34;5113423;28;20674;-56
2023/03/14 08:23:00;;;;;;;3.27;1.57;;;14.60;73.90;;;17.41;49.79;98600.88;5112229;27;20323;-55
2023/03/14 08:25:29;;;;;;;5.67;2.20;;;14.60;74.10;;;17.43;49.86;98609.38;5113688;28;20732;-54
2023/03/14 08:27:56;;;;;;;7.57;2.67;;;14.50;74.00;;;17.38;49.64;98609.38;5107493;28;20271;-55
2023/03/14 08:30:24;;;;;;;2.80;1.80;;;14.50;73.90;;;17.23;49.25;98596.16;5112684;28;20211;-55
2023/03/14 08:32:51;;;;;;;3.73;2.10;;;14.40;73.20;;;17.16;49.63;98601.75;5112053;28;20242;-55
2023/03/14 08:35:19;;;;;;;6.40;2.50;;;14.40;73.30;;;17.04;49.75;98603.91;5113672;28;20296;-55
2023/03/14 08:37:46;;;;;;;6.70;1.90;;;14.30;73.10;;;17.06;49.65;98607.09;5114016;28;20194;-54
2023/03/14 08:40:15;;;;;;;4.70;2.30;;;14.30;73.20;;;17.02;49.87;98631.81;5113951;28;20203;-57
2023/03/14 08:42:44;;;;;;;6.33;2.00;;;14.30;73.50;;;16.75;52.15;98621.47;5114675;28;20215;-57
2023/03/14 08:45:16;;;;;;;6.97;2.40;;;14.20;76.80;;;16.58;52.67;98620.94;5115063;28;20648;-58
2023/03/14 08:47:43;;;;;;;7.93;2.90;;;14.10;77.60;;;16.38;53.54;98631.53;5117893;28;20191;-57
2023/03/14 08:50:11;;;;;;;7.30;2.13;;;14.00;78.00;;;16.17;54.50;98620.06;5116139;28;20221;-58
2023/03/14 08:52:42;;;;;;;2.33;1.50;;;13.80;78.20;;;15.91;55.19;98632.47;5115587;28;20272;-55
2023/03/14 08:55:10;;;;;;;5.20;2.00;;;13.70;78.80;;;15.93;55.07;98630.34;5114265;28;20188;-58
2023/03/14 08:57:38;;;;;;;6.23;2.13;;;13.70;79.20;;;15.94;55.37;98629.31;5103850;28;20284;-56
2023/03/14 09:00:12;;;;;;;4.37;2.00;;;13.60;79.40;;;15.89;55.15;98634.59;5092081;28;20251;-54
2023/03/14 09:02:39;;;;;;;5.73;1.60;;;13.50;79.80;;;15.91;54.92;98635.13;5093035;28;20213;-58
2023/03/14 09:05:07;;;;;;;3.90;1.43;;;13.50;79.90;;;15.98;55.00;98629.56;5093247;28;20202;-54
2023/03/14 09:07:34;;;;;;;4.20;1.93;;;13.50;80.10;;;16.03;55.03;98638.34;5093359;28;20198;-54
2023/03/14 09:10:02;;;;;;;2.93;1.93;;;13.40;80.20;;;16.07;55.27;98639.41;5091798;28;20196;-56
2023/03/14 09:12:30;;;;;;;5.57;1.60;;;13.40;80.30;;;16.11;54.76;98667.03;5092160;28;20200;-56
2023/03/14 09:14:57;;;;;;;3.93;2.00;;;13.40;80.50;;;16.09;55.16;98730.19;5112364;28;20187;-57
2023/03/14 09:17:25;;;;;;;7.10;1.63;;;13.40;80.90;;;16.00;54.13;98758.28;5116839;27;20688;-55
2023/03/14 09:19:52;;;;;;;4.03;1.53;;;13.30;78.50;;;15.77;52.95;98745.44;5113164;28;20206;-55
2023/03/14 09:22:20;;;;;;;4.33;1.50;;;13.20;76.40;;;15.56;52.96;98767.59;5112527;28;20274;-54
2023/03/14 09:24:47;;;;;;;3.53;1.43;;;13.00;76.60;;;15.40;52.74;98773.81;5112539;27;20307;-57
2023/03/14 09:27:14;;;;;;;5.17;2.90;;;12.80;75.70;;;15.21;52.53;98785.84;5113043;28;20196;-55
2023/03/14 09:29:41;;;;;;;4.33;1.97;;;12.60;75.20;;;15.02;52.22;98805.81;5112818;28;20192;-56
2023/03/14 09:32:08;;;;;;;4.17;2.67;;;12.40;75.50;;;14.79;52.21;98807.69;5112565;28;20203;-55
2023/03/14 09:34:36;;;;;;;3.73;1.50;;;12.20;75.00;;;14.56;52.04;98826.53;5113007;28;20214;-54
2023/03/14 09:37:03;;;;;;;3.87;2.30;;;11.90;74.70;;;14.36;52.51;98831.56;5113506;28;20679;-57
2023/03/14 09:39:31;;;;;;;3.50;1.60;;;11.70;75.80;;;14.21;52.52;98844.56;5113832;28;20233;-57
2023/03/14 09:42:04;;;;;;;4.80;2.90;;;11.50;75.50;;;14.00;52.25;98853.28;5113848;28;20191;-55
2023/03/14 09:44:37;;;;;;;4.73;1.70;;;11.20;75.00;;;13.83;52.35;98852.50;5131340;28;20295;-57
2023/03/14 09:47:10;;;;;;;4.93;3.77;;;11.10;75.80;;;13.71;52.88;98870.28;5111225;28;20241;-55
2023/03/14 09:49:41;;;;;;;3.10;1.60;;;10.90;76.60;;;13.60;53.23;98879.09;5105306;28;20252;-55
2023/03/14 09:52:15;;;;;;;2.67;2.10;;;10.80;77.30;;;13.53;53.37;98879.25;5103341;28;20197;-55
2023/03/14 09:54:47;;;;;;;2.30;1.40;;;10.70;77.70;;;13.38;52.29;98914.13;5109073;28;20219;-55
2023/03/14 09:57:18;;;;;;;1.27;1.00;;;10.40;75.90;;;13.19;51.91;98925.94;5108770;28;20184;-55
2023/03/14 09:59:49;;;;;;;1.47;1.00;;;10.20;75.00;;;12.99;52.17;98944.03;5096794;27;20206;-58
2023/03/14 10:02:20;;;;;;;1.90;1.33;;;10.10;75.70;;;12.85;52.51;98945.31;5096278;28;20193;-56
2023/03/14 10:04:52;;;;;;;3.17;1.97;;;10.00;75.80;;;12.72;52.96;98966.69;5103823;27;20223;-56
2023/03/14 10:07:27;;;;;;;3.23;2.40;;;9.90;77.40;;;12.60;52.55;98973.84;5112028;27;20196;-56
2023/03/14 10:09:56;;;;;;;4.67;3.13;;;9.70;76.80;;;12.45;51.95;98987.50;5111615;27;20202;-56
2023/03/14 10:12:32;;;;;;;2.57;2.37;;;9.50;76.30;;;12.31;52.56;99001.13;5108092;27;20582;-57
2023/03/14 10:15:06;;;;;;;2.67;1.77;;;9.40;78.00;;;12.23;53.72;99003.06;5113989;27;20180;-57
2023/03/14 10:17:40;;;;;;;4.17;3.77;;;9.30;79.20;;;12.16;53.21;99015.56;5109431;27;20326;-55
2023/03/14 10:20:32;;;;;;;2.80;1.97;;;9.20;77.40;;;12.01;52.80;99036.28;5111617;27;21114;-56
2023/03/14 10:23:03;;;;;;;1.00;0.90;;;9.10;77.60;;;11.90;51.84;99037.06;5134338;27;20833;-57
2023/03/14 10:25:33;;;;;;;3.00;2.70;;;8.80;76.20;;;11.78;52.46;99057.31;5116573;27;20188;-56
2023/03/14 10:28:03;;;;;;;2.30;2.10;;;8.70;77.60;;;11.68;52.72;99064.94;5094578;28;20192;-56